Time;durP1;ratioP1;P1;durP2;ratioP2;P2;SDS_P1;SDS_P2;PMS_P1;PMS_P2;Temp;Humidity;BMP_temperature;BMP_pressure;BME280_temperature;BME280_humidity;BME280_pressure;Samples;Min_cycle;Max_cycle;Signal;HPM_P1;HPM_P2
2021/10/18 10:56:19;;;;;;;6.20;3.90;;;19.90;98.00;;;;;;6128762;23;20185;-84
2021/10/18 10:58:49;;;;;;;6.80;4.10;;;20.30;97.40;;;;;;6102962;23;20158;-85
2021/10/18 11:01:43;;;;;;;6.93;4.20;;;20.50;96.80;;;;;;6102643;23;20148;-84
2021/10/18 11:04:34;;;;;;;8.27;4.57;;;20.70;96.50;;;;;;6102438;23;20157;-84
2021/10/18 11:07:36;;;;;;;6.60;4.27;;;20.20;96.80;;;;;;6102330;23;20159;-84
2021/10/18 11:10:06;;;;;;;7.37;4.20;;;19.90;97.20;;;;;;6054854;23;20206;-84
2021/10/18 11:12:33;;;;;;;6.07;4.27;;;19.70;97.60;;;;;;6103083;23;20156;-84
2021/10/18 11:15:29;;;;;;;7.87;4.63;;;19.50;98.00;;;;;;6102267;23;20201;-84
2021/10/18 11:17:55;;;;;;;7.40;4.03;;;19.40;98.10;;;;;;6084750;23;20154;-84
2021/10/18 11:20:23;;;;;;;8.07;4.40;;;19.30;98.40;;;;;;6102289;23;20185;-84
2021/10/18 11:22:52;;;;;;;7.87;4.07;;;19.20;98.50;;;;;;6102507;23;20158;-84
2021/10/18 11:25:21;;;;;;;6.33;4.30;;;19.20;98.70;;;;;;6102066;23;20625;-84
2021/10/18 11:27:54;;;;;;;7.20;4.63;;;19.10;98.70;;;;;;6102446;23;20157;-84
2021/10/18 11:30:21;;;;;;;9.53;5.00;;;19.10;98.90;;;;;;6102515;23;20155;-84
2021/10/18 11:32:54;;;;;;;10.67;5.50;;;19.10;98.90;;;;;;6102295;23;20145;-84
2021/10/18 11:35:20;;;;;;;10.63;4.73;;;18.90;99.20;;;;;;6127305;23;20174;-84
2021/10/18 11:37:56;;;;;;;6.73;4.50;;;18.90;99.50;;;;;;6102394;23;20540;-84
2021/10/18 11:40:35;;;;;;;7.20;4.47;;;18.90;99.70;;;;;;6102447;23;20185;-84
2021/10/18 11:43:06;;;;;;;9.53;4.57;;;19.00;99.50;;;;;;6127925;23;20474;-84
2021/10/18 11:45:35;;;;;;;5.87;4.43;;;19.10;99.40;;;;;;6101957;23;20157;-84
2021/10/18 11:48:12;;;;;;;6.57;4.73;;;19.20;99.20;;;;;;6102163;23;20158;-84
2021/10/18 11:50:40;;;;;;;8.27;4.67;;;19.30;99.00;;;;;;6102636;23;20157;-84
2021/10/18 11:53:39;;;;;;;8.80;4.33;;;19.30;99.00;;;;;;6102314;23;20169;-84
2021/10/18 11:56:05;;;;;;;6.87;4.83;;;19.00;99.60;;;;;;6096723;23;20269;-84
2021/10/18 11:58:32;;;;;;;6.70;4.27;;;19.00;99.40;;;;;;6102481;23;20650;-84
2021/10/18 12:01:02;;;;;;;8.40;4.73;;;19.10;99.50;;;;;;6102052;23;20174;-84
2021/10/18 12:03:31;;;;;;;8.67;4.60;;;19.10;99.50;;;;;;6102340;23;20199;-83
2021/10/18 12:06:00;;;;;;;9.23;4.57;;;19.10;99.50;;;;;;6102204;23;20660;-84
2021/10/18 12:08:31;;;;;;;10.73;5.00;;;19.20;99.40;;;;;;6101994;23;20157;-84
2021/10/18 12:10:58;;;;;;;7.43;4.53;;;19.30;99.40;;;;;;6101976;23;20147;-84
2021/10/18 12:13:27;;;;;;;9.80;4.57;;;19.30;99.40;;;;;;6102294;23;20158;-83
2021/10/18 12:16:08;;;;;;;8.77;4.87;;;19.50;99.20;;;;;;6101421;23;20189;-84
2021/10/18 12:18:38;;;;;;;7.43;4.87;;;19.70;99.10;;;;;;6101406;23;20164;-86
2021/10/18 12:21:08;;;;;;;6.97;5.07;;;19.70;99.00;;;;;;6102095;23;20161;-84
2021/10/18 12:24:01;;;;;;;8.53;4.97;;;19.60;99.00;;;;;;6101661;23;20249;-86
2021/10/18 12:26:29;;;;;;;8.13;4.20;;;19.30;99.90;;;;;;6092587;23;20153;-84
2021/10/18 12:29:01;;;;;;;8.63;4.17;;;19.50;99.50;;;;;;6102005;23;20186;-84
2021/10/18 12:31:49;;;;;;;7.17;4.27;;;19.90;99.40;;;;;;6102125;23;20183;-85
2021/10/18 12:34:25;;;;;;;9.37;4.90;;;20.50;98.40;;;;;;6102013;23;20187;-85
2021/10/18 12:37:00;;;;;;;8.60;4.20;;;21.10;97.70;;;;;;6102094;23;20170;-84
2021/10/18 12:39:53;;;;;;;5.47;4.37;;;21.20;97.30;;;;;;6101963;23;20232;-85
2021/10/18 12:42:26;;;;;;;6.23;4.00;;;21.20;97.30;;;;;;6101724;23;20169;-85
2021/10/18 12:45:03;;;;;;;6.60;4.10;;;21.10;97.40;;;;;;6101843;23;20167;-84
2021/10/18 12:47:29;;;;;;;6.57;4.40;;;21.00;97.60;;;;;;6101062;23;20193;-84
2021/10/18 12:50:03;;;;;;;7.63;4.37;;;20.70;97.90;;;;;;6101328;23;20195;-84
2021/10/18 12:52:33;;;;;;;6.60;3.90;;;20.70;98.10;;;;;;6101426;23;20176;-84
2021/10/18 12:55:09;;;;;;;6.50;4.40;;;20.80;98.10;;;;;;6101453;23;20504;-84
2021/10/18 12:57:35;;;;;;;5.63;4.03;;;21.20;97.80;;;;;;6101369;23;20168;-84
2021/10/18 13:00:11;;;;;;;5.97;3.53;;;22.20;96.80;;;;;;6101380;23;20170;-84
2021/10/18 13:02:46;;;;;;;6.60;4.03;;;23.10;95.60;;;;;;6101426;23;20181;-84
2021/10/18 13:05:19;;;;;;;5.40;4.13;;;23.50;94.80;;;;;;6101422;23;20150;-84
2021/10/18 13:07:59;;;;;;;6.03;4.03;;;23.90;94.60;;;;;;6101177;23;20157;-84
2021/10/18 13:10:32;;;;;;;5.00;3.60;;;23.70;94.40;;;;;;6101362;23;20157;-84
2021/10/18 13:13:02;;;;;;;6.67;3.87;;;23.30;94.80;;;;;;6101488;23;20245;-84
2021/10/18 13:15:29;;;;;;;6.40;4.50;;;22.90;95.20;;;;;;6100999;23;20333;-85
2021/10/18 13:17:55;;;;;;;10.07;4.13;;;22.40;95.70;;;;;;6126998;23;20137;-84
2021/10/18 13:20:23;;;;;;;6.60;4.63;;;22.10;96.10;;;;;;6101627;23;20157;-84
2021/10/18 13:22:49;;;;;;;7.63;4.53;;;21.90;96.40;;;;;;6101376;23;20173;-86
2021/10/18 13:25:16;;;;;;;7.63;4.20;;;21.50;96.80;;;;;;6101451;23;20197;-85
2021/10/18 13:27:42;;;;;;;12.60;4.53;;;21.30;97.30;;;;;;6101097;23;20270;-86
2021/10/18 13:30:09;;;;;;;6.57;3.90;;;21.00;97.70;;;;;;6101145;23;20189;-86
2021/10/18 13:32:36;;;;;;;6.97;4.10;;;20.90;98.00;;;;;;6101338;23;20161;-86
2021/10/18 13:35:03;;;;;;;7.07;4.50;;;20.80;98.20;;;;;;6101105;23;20184;-85
2021/10/18 13:37:29;;;;;;;5.13;4.00;;;20.90;98.20;;;;;;6101083;23;20164;-86
2021/10/18 13:39:54;;;;;;;7.90;4.07;;;20.90;98.30;;;;;;6126799;23;20461;-86
2021/10/18 13:42:20;;;;;;;8.17;3.80;;;21.00;98.00;;;;;;6101322;23;20207;-84
2021/10/18 13:44:47;;;;;;;7.30;4.17;;;21.00;98.10;;;;;;6100590;23;20149;-84
2021/10/18 13:47:12;;;;;;;7.00;3.80;;;21.20;97.80;;;;;;6101138;23;20168;-87
2021/10/18 13:49:38;;;;;;;7.30;4.37;;;21.40;97.10;;;;;;6101021;23;20162;-86
2021/10/18 13:52:05;;;;;;;8.73;4.30;;;21.30;97.10;;;;;;6101177;23;20178;-84
2021/10/18 13:54:31;;;;;;;4.70;3.50;;;21.30;97.20;;;;;;6100856;23;20195;-85
2021/10/18 13:56:57;;;;;;;6.40;3.70;;;21.10;97.30;;;;;;6100741;23;20147;-85
2021/10/18 13:59:22;;;;;;;5.60;4.00;;;21.10;97.40;;;;;;6100812;23;20169;-85
2021/10/18 14:01:49;;;;;;;5.87;3.50;;;21.20;97.50;;;;;;6101441;23;20551;-86
2021/10/18 14:04:15;;;;;;;6.07;3.47;;;21.30;97.10;;;;;;6101387;23;20149;-85
2021/10/18 14:06:42;;;;;;;6.20;3.93;;;21.50;97.00;;;;;;6100772;23;20153;-86
2021/10/18 14:09:09;;;;;;;5.30;3.63;;;21.30;97.00;;;;;;6100945;23;20177;-85
2021/10/18 14:11:36;;;;;;;6.07;3.77;;;21.30;97.20;;;;;;6100992;23;20667;-85
2021/10/18 14:14:01;;;;;;;9.57;4.17;;;21.20;97.80;;;;;;6100537;23;20165;-85
2021/10/18 14:16:27;;;;;;;5.23;4.00;;;21.00;97.60;;;;;;6101398;23;20164;-85
2021/10/18 14:18:53;;;;;;;8.77;4.10;;;20.90;97.90;;;;;;6101228;23;20734;-85
2021/10/18 14:21:18;;;;;;;4.93;4.13;;;20.80;98.20;;;;;;6101135;23;20157;-85
2021/10/18 14:23:44;;;;;;;7.00;4.03;;;20.50;98.40;;;;;;6100812;23;20151;-85
2021/10/18 14:26:10;;;;;;;8.20;5.00;;;20.10;99.00;;;;;;6100801;23;20159;-85
2021/10/18 14:28:36;;;;;;;7.00;4.10;;;20.00;99.40;;;;;;6101186;23;20161;-85
2021/10/18 14:31:02;;;;;;;8.07;4.43;;;20.00;99.50;;;;;;6100872;23;20215;-85
2021/10/18 14:33:28;;;;;;;5.70;4.17;;;20.10;99.30;;;;;;6101546;23;20172;-86
2021/10/18 14:35:54;;;;;;;7.23;4.70;;;20.10;99.20;;;;;;6100414;23;20630;-86
2021/10/18 14:38:20;;;;;;;14.50;4.40;;;20.20;99.30;;;;;;6100881;23;20193;-85
2021/10/18 14:40:47;;;;;;;7.97;4.13;;;20.30;99.30;;;;;;6100728;23;20217;-85
2021/10/18 14:43:13;;;;;;;9.17;4.07;;;20.20;99.70;;;;;;6100364;23;20645;-85
2021/10/18 14:45:39;;;;;;;6.57;4.20;;;20.30;99.70;;;;;;6100639;23;20152;-85
2021/10/18 14:48:05;;;;;;;8.67;4.60;;;20.60;99.10;;;;;;6101186;23;20150;-86
2021/10/18 14:50:32;;;;;;;7.87;4.30;;;20.80;98.90;;;;;;6101057;23;20161;-86
2021/10/18 14:52:58;;;;;;;9.17;4.73;;;20.70;98.80;;;;;;6100771;23;20660;-86
2021/10/18 14:55:24;;;;;;;8.60;4.13;;;20.70;98.90;;;;;;6099947;23;20204;-84
2021/10/18 14:57:50;;;;;;;7.43;4.33;;;20.70;99.10;;;;;;6100947;23;20469;-83
2021/10/18 15:00:16;;;;;;;7.83;4.50;;;20.80;98.90;;;;;;6100714;23;20200;-84
2021/10/18 15:02:44;;;;;;;7.60;4.43;;;21.00;98.70;;;;;;6100917;23;20156;-84
2021/10/18 15:05:11;;;;;;;7.00;4.20;;;21.30;99.00;;;;;;6100797;23;20228;-84
2021/10/18 15:07:37;;;;;;;6.47;4.37;;;21.60;97.60;;;;;;6100783;23;20153;-84
2021/10/18 15:10:03;;;;;;;7.87;4.57;;;21.70;97.60;;;;;;6126708;23;20137;-84
2021/10/18 15:12:29;;;;;;;6.37;4.07;;;22.00;97.50;;;;;;6100490;23;20205;-84
2021/10/18 15:14:55;;;;;;;5.33;3.93;;;22.20;97.10;;;;;;6100195;23;20483;-84
2021/10/18 15:17:22;;;;;;;5.73;3.67;;;22.80;96.60;;;;;;6100248;23;20158;-84
2021/10/18 15:19:48;;;;;;;6.93;3.80;;;23.20;96.00;;;;;;6100910;23;20259;-84
2021/10/18 15:22:18;;;;;;;8.83;4.17;;;23.50;95.50;;;;;;6100768;23;20166;-84
2021/10/18 15:24:44;;;;;;;6.00;4.00;;;23.70;95.30;;;;;;6101836;23;20229;-84
2021/10/18 15:27:10;;;;;;;6.93;3.60;;;23.90;95.00;;;;;;6102140;23;20476;-84
2021/10/18 15:29:37;;;;;;;6.20;4.20;;;23.90;94.90;;;;;;6102679;23;20160;-85
2021/10/18 15:32:03;;;;;;;8.13;4.13;;;23.70;95.10;;;;;;6102097;23;20478;-85
2021/10/18 15:34:29;;;;;;;6.10;4.33;;;23.70;95.20;;;;;;6102301;23;20265;-84
2021/10/18 15:36:55;;;;;;;7.17;4.80;;;23.50;95.30;;;;;;6102406;23;20154;-84
2021/10/18 15:39:21;;;;;;;5.87;4.33;;;23.20;95.60;;;;;;6102204;23;20160;-84
2021/10/18 15:41:47;;;;;;;8.13;4.80;;;22.70;96.00;;;;;;6102411;23;20289;-84
2021/10/18 15:44:13;;;;;;;7.07;4.57;;;22.20;96.80;;;;;;6102882;23;20161;-84
2021/10/18 15:46:42;;;;;;;6.87;4.40;;;21.70;97.40;;;;;;6095825;23;20152;-84
2021/10/18 15:49:08;;;;;;;7.43;4.63;;;21.40;97.80;;;;;;6098572;23;20165;-84
2021/10/18 15:51:34;;;;;;;6.97;4.90;;;21.20;98.30;;;;;;6127366;23;20198;-84
2021/10/18 15:54:00;;;;;;;7.47;4.60;;;21.00;98.70;;;;;;6101255;23;20183;-83
2021/10/18 15:56:27;;;;;;;6.13;4.47;;;20.80;98.90;;;;;;6101456;23;20149;-83
2021/10/18 15:58:52;;;;;;;8.70;4.67;;;20.50;99.10;;;;;;6101960;23;20153;-84
2021/10/18 16:01:18;;;;;;;6.93;4.30;;;20.30;99.30;;;;;;6101607;23;20167;-84
2021/10/18 16:16:41;;;;;;;9.63;4.60;;;19.20;99.90;;;;;;6161068;23;20209;-81
2021/10/18 16:19:07;;;;;;;7.07;4.40;;;19.20;99.90;;;;;;6129755;23;20177;-80
2021/10/18 16:21:33;;;;;;;6.07;4.13;;;19.20;99.90;;;;;;6129368;23;20153;-80
2021/10/18 16:23:59;;;;;;;7.30;4.47;;;19.10;99.90;;;;;;6128916;23;20191;-80
2021/10/18 16:26:25;;;;;;;5.97;4.50;;;19.00;99.90;;;;;;6129776;23;20157;-80
2021/10/18 16:28:51;;;;;;;7.20;4.57;;;19.00;99.90;;;;;;6129809;23;20154;-80
2021/10/18 16:31:17;;;;;;;7.10;5.00;;;19.00;99.90;;;;;;6129783;23;20157;-79
2021/10/18 16:33:43;;;;;;;6.77;4.60;;;19.00;99.90;;;;;;6129744;23;20148;-81
2021/10/18 16:36:09;;;;;;;6.67;4.50;;;19.00;99.90;;;;;;6155101;23;20173;-79
2021/10/18 16:38:35;;;;;;;7.17;4.83;;;19.00;99.90;;;;;;6129226;23;20495;-78
2021/10/18 16:41:00;;;;;;;9.57;4.50;;;18.80;99.90;;;;;;6129529;23;20156;-80
2021/10/18 16:43:27;;;;;;;6.87;4.87;;;18.60;99.90;;;;;;6129321;23;20602;-79
2021/10/18 16:45:53;;;;;;;6.93;4.93;;;18.50;99.90;;;;;;6129780;23;20244;-80
2021/10/18 16:48:20;;;;;;;7.30;4.87;;;18.30;99.90;;;;;;6155984;23;20192;-83
2021/10/18 16:50:46;;;;;;;7.60;5.10;;;18.20;99.90;;;;;;6155201;23;20141;-80
2021/10/18 16:53:12;;;;;;;6.97;4.80;;;18.10;99.90;;;;;;6128961;23;20185;-80
2021/10/18 16:55:39;;;;;;;8.20;5.00;;;18.20;99.90;;;;;;6155622;23;20181;-79
2021/10/18 16:58:05;;;;;;;11.17;5.40;;;18.20;99.90;;;;;;6154558;23;20574;-81
2021/10/18 17:00:30;;;;;;;9.07;5.20;;;18.10;99.90;;;;;;6129352;23;20178;-80
2021/10/18 17:02:56;;;;;;;5.83;4.87;;;18.10;99.90;;;;;;6128545;23;20149;-81
2021/10/18 17:05:22;;;;;;;6.40;5.10;;;18.10;99.90;;;;;;6128208;23;20157;-81
2021/10/18 17:07:48;;;;;;;8.47;5.20;;;18.00;99.90;;;;;;6128891;23;20212;-78
2021/10/18 17:10:14;;;;;;;9.30;5.00;;;18.00;99.90;;;;;;6129979;23;20188;-78
2021/10/18 17:12:40;;;;;;;7.17;5.30;;;17.90;99.90;;;;;;6129642;23;20168;-81
2021/10/18 17:15:07;;;;;;;8.30;5.63;;;17.90;99.90;;;;;;6129338;23;20190;-80
2021/10/18 17:17:33;;;;;;;8.93;6.03;;;17.70;99.90;;;;;;6129634;23;20661;-81
2021/10/18 17:20:01;;;;;;;7.97;5.20;;;17.70;99.90;;;;;;6129499;23;20238;-78
2021/10/18 17:22:28;;;;;;;9.13;5.47;;;17.60;99.90;;;;;;6155274;23;20207;-81
2021/10/18 17:24:53;;;;;;;9.07;5.50;;;17.60;99.90;;;;;;6129108;23;20192;-80
2021/10/18 17:27:19;;;;;;;11.77;5.77;;;17.50;99.90;;;;;;6155493;23;20568;-81
2021/10/18 17:29:45;;;;;;;7.70;5.70;;;17.40;99.90;;;;;;6129098;23;20159;-81
2021/10/18 17:32:10;;;;;;;7.60;4.87;;;17.40;99.90;;;;;;6129344;23;20576;-81
2021/10/18 17:34:37;;;;;;;8.30;5.80;;;17.40;99.90;;;;;;6155131;23;20494;-82
2021/10/18 17:37:03;;;;;;;8.73;5.97;;;17.40;99.90;;;;;;6128624;23;20225;-81
2021/10/18 17:39:30;;;;;;;7.97;5.10;;;17.30;99.90;;;;;;6128726;23;20158;-81
2021/10/18 17:41:55;;;;;;;7.23;5.40;;;17.20;99.90;;;;;;6129470;23;20154;-79
2021/10/18 17:44:22;;;;;;;10.87;6.77;;;17.30;99.90;;;;;;6128614;23;20179;-81
2021/10/18 17:46:48;;;;;;;9.50;5.83;;;17.30;99.90;;;;;;6154506;23;20153;-78
2021/10/18 17:49:15;;;;;;;10.43;5.60;;;17.40;99.90;;;;;;6128510;23;20162;-78
2021/10/18 17:51:42;;;;;;;7.17;5.50;;;17.40;99.90;;;;;;6154426;23;20143;-81
2021/10/18 17:54:07;;;;;;;8.77;6.10;;;17.40;99.90;;;;;;6128288;23;20159;-78
2021/10/18 17:56:36;;;;;;;8.97;6.17;;;17.40;99.90;;;;;;6155176;23;20144;-80
2021/10/18 17:59:02;;;;;;;10.20;6.13;;;17.20;99.90;;;;;;6128648;23;20459;-80
2021/10/18 18:01:28;;;;;;;8.00;5.73;;;17.10;99.90;;;;;;6154722;23;20581;-80
2021/10/18 18:03:56;;;;;;;9.70;6.33;;;16.90;99.90;;;;;;6154992;23;20557;-80
2021/10/18 18:06:22;;;;;;;11.93;7.00;;;16.80;99.90;;;;;;6154791;23;20219;-80
2021/10/18 18:08:47;;;;;;;10.17;6.47;;;16.80;99.90;;;;;;6129328;23;20193;-85
2021/10/18 18:11:13;;;;;;;11.17;6.97;;;16.80;99.90;;;;;;6129844;23;20527;-85
2021/10/18 18:13:40;;;;;;;9.00;6.07;;;16.80;99.90;;;;;;6129548;23;20587;-84
2021/10/18 18:16:07;;;;;;;13.73;12.33;;;16.80;99.90;;;;;;6154957;23;20654;-81
2021/10/18 18:18:33;;;;;;;8.93;6.07;;;16.80;99.90;;;;;;6129666;23;20160;-79
2021/10/18 18:21:02;;;;;;;11.27;7.77;;;16.80;99.90;;;;;;6128295;23;20161;-78
2021/10/18 18:23:28;;;;;;;9.00;7.87;;;17.00;99.90;;;;;;6129103;23;20537;-79
2021/10/18 18:25:55;;;;;;;9.23;6.23;;;17.00;99.90;;;;;;6129374;23;20155;-79
2021/10/18 18:28:21;;;;;;;9.53;7.20;;;17.00;99.90;;;;;;6129148;23;20155;-81
2021/10/18 18:30:48;;;;;;;9.87;6.80;;;16.90;99.90;;;;;;6128984;23;20155;-78
2021/10/18 18:33:15;;;;;;;11.13;6.80;;;16.90;99.90;;;;;;6129428;23;20468;-83
2021/10/18 18:35:41;;;;;;;10.37;6.80;;;16.80;99.90;;;;;;6128821;23;20195;-84
2021/10/18 18:38:08;;;;;;;7.47;6.13;;;16.80;99.90;;;;;;6129041;23;20155;-78
2021/10/18 18:40:33;;;;;;;9.67;7.20;;;16.80;99.90;;;;;;6160030;23;20139;-80
2021/10/18 18:42:59;;;;;;;11.80;6.47;;;16.90;99.90;;;;;;6135717;23;20239;-81
2021/10/18 18:45:25;;;;;;;9.93;6.20;;;17.00;99.90;;;;;;6159653;23;20144;-82
2021/10/18 18:47:51;;;;;;;9.23;6.20;;;16.80;99.90;;;;;;6134527;23;20212;-80
2021/10/18 18:50:19;;;;;;;9.00;6.47;;;16.70;99.90;;;;;;6133413;23;20529;-80
2021/10/18 18:52:46;;;;;;;8.50;6.87;;;16.70;99.90;;;;;;6135768;23;20246;-80
2021/10/18 18:55:14;;;;;;;9.17;6.30;;;16.80;99.90;;;;;;6129059;23;20198;-79
2021/10/18 18:57:41;;;;;;;7.80;6.23;;;16.90;99.90;;;;;;6129316;23;20242;-80
2021/10/18 19:00:09;;;;;;;9.50;6.40;;;17.00;99.90;;;;;;6130162;23;20191;-79
2021/10/18 19:02:38;;;;;;;9.97;6.50;;;16.90;99.90;;;;;;6130571;23;20541;-79
2021/10/18 19:05:03;;;;;;;9.70;6.50;;;16.80;99.90;;;;;;6130837;23;20219;-79
2021/10/18 19:07:29;;;;;;;10.73;6.90;;;16.70;99.90;;;;;;6130379;23;20481;-82
2021/10/18 19:09:55;;;;;;;12.53;6.87;;;16.80;99.90;;;;;;6131255;23;20264;-82
2021/10/18 19:12:20;;;;;;;10.87;6.50;;;16.80;99.90;;;;;;6131119;23;20153;-83
2021/10/18 19:14:46;;;;;;;8.50;6.50;;;16.80;99.90;;;;;;6157278;23;20187;-81
2021/10/18 19:17:12;;;;;;;9.37;6.97;;;16.80;99.90;;;;;;6156537;23;20303;-83
2021/10/18 19:19:37;;;;;;;10.27;8.13;;;16.90;99.90;;;;;;6131120;23;20183;-83
2021/10/18 19:22:05;;;;;;;13.00;7.07;;;17.00;99.90;;;;;;6130530;23;20152;-79
2021/10/18 20:29:15;;;;;;;10.33;7.20;;;17.20;99.90;;;;;;6178117;23;20387;-82
2021/10/18 20:33:00;;;;;;;9.93;7.10;;;17.10;99.90;;;;;;6130244;23;20175;-94
2021/10/18 20:39:24;;;;;;;;;;;;;;;;;;;;;
2021/10/18 20:41:52;;;;;;;8.77;7.00;;;17.20;99.90;;;;;;6039216;23;20557;-92
2021/10/18 20:51:22;;;;;;;8.77;7.17;;;17.10;99.90;;;;;;6159077;23;20153;-94
2021/10/18 20:57:37;;;;;;;11.83;7.80;;;17.00;99.90;;;;;;6135420;23;20173;-94
2021/10/18 21:00:38;;;;;;;12.53;7.20;;;17.00;99.90;;;;;;6132737;23;20470;-94
2021/10/18 21:07:20;;;;;;;;;;;;;;;;;;;;;
2021/10/18 21:10:15;;;;;;;9.33;7.10;;;17.20;99.90;;;;;;6155998;23;20669;-95
2021/10/18 21:13:22;;;;;;;11.47;9.27;;;17.10;99.90;;;;;;6126678;23;20662;-96
2021/10/18 21:15:48;;;;;;;12.27;7.37;;;17.10;99.90;;;;;;6129990;23;20207;-93
2021/10/18 21:18:17;;;;;;;13.43;8.20;;;17.00;99.90;;;;;;6129763;23;20160;-94
2021/10/18 21:20:43;;;;;;;9.33;6.93;;;16.90;99.90;;;;;;6130427;23;20190;-94
2021/10/18 21:23:11;;;;;;;12.37;8.07;;;17.00;99.90;;;;;;6129661;23;20185;-94
2021/10/18 21:25:37;;;;;;;12.43;7.50;;;17.00;99.90;;;;;;6128967;23;20175;-94
2021/10/18 21:28:47;;;;;;;13.07;10.73;;;17.00;99.90;;;;;;6128938;23;20211;-94
2021/10/18 21:31:36;;;;;;;18.77;13.77;;;17.10;99.90;;;;;;6130400;23;20185;-95
2021/10/18 21:34:04;;;;;;;11.43;8.37;;;17.10;99.90;;;;;;6130017;23;20227;-95
2021/10/18 21:36:30;;;;;;;19.63;12.80;;;17.10;99.90;;;;;;6129338;23;20214;-94
2021/10/18 21:39:32;;;;;;;22.77;17.17;;;17.20;99.90;;;;;;6128040;23;20159;-94
2021/10/18 21:42:01;;;;;;;18.67;12.37;;;17.30;99.90;;;;;;6126992;23;20164;-91
2021/10/18 21:44:27;;;;;;;13.43;9.13;;;17.30;99.90;;;;;;6129115;23;20156;-94
2021/10/18 21:46:53;;;;;;;14.03;8.47;;;17.30;99.90;;;;;;6130634;23;20215;-94
2021/10/18 21:49:19;;;;;;;12.83;8.67;;;17.20;99.90;;;;;;6129099;23;20184;-92
2021/10/18 21:51:44;;;;;;;10.23;7.50;;;17.20;99.90;;;;;;6129454;23;20180;-93
2021/10/18 21:54:10;;;;;;;11.97;7.93;;;17.10;99.90;;;;;;6129268;23;20160;-93
2021/10/18 21:56:36;;;;;;;12.27;8.60;;;17.10;99.90;;;;;;6130926;23;20184;-92
2021/10/18 21:59:01;;;;;;;11.77;8.10;;;17.20;99.90;;;;;;6128386;23;20154;-93
2021/10/18 22:01:27;;;;;;;11.70;8.13;;;17.10;99.90;;;;;;6128652;23;20161;-93
2021/10/18 22:03:53;;;;;;;10.10;7.73;;;17.10;99.90;;;;;;6132617;23;20237;-92
2021/10/18 22:06:19;;;;;;;11.10;8.30;;;17.00;99.90;;;;;;6132269;23;20149;-93
2021/10/18 22:08:44;;;;;;;12.57;8.03;;;16.90;99.90;;;;;;6130011;23;20593;-93
2021/10/18 22:11:10;;;;;;;10.73;8.20;;;16.90;99.90;;;;;;6128947;23;20164;-91
2021/10/18 22:13:36;;;;;;;9.30;7.70;;;16.90;99.90;;;;;;6128205;23;20231;-93
2021/10/18 22:16:02;;;;;;;11.10;8.10;;;16.90;99.90;;;;;;6127267;23;20284;-93
2021/10/18 22:18:28;;;;;;;10.53;7.97;;;16.90;99.90;;;;;;6129832;23;20188;-93
2021/10/18 22:20:54;;;;;;;12.53;8.83;;;16.90;99.90;;;;;;6130309;23;20156;-94
2021/10/18 22:23:20;;;;;;;12.50;8.40;;;16.90;99.90;;;;;;6128573;23;20159;-94
2021/10/18 22:25:45;;;;;;;11.77;8.40;;;16.90;99.90;;;;;;6127187;23;20185;-93
2021/10/18 22:28:15;;;;;;;12.13;8.97;;;16.90;99.90;;;;;;6126880;23;20154;-93
2021/10/18 22:30:41;;;;;;;10.20;8.07;;;16.90;99.90;;;;;;6127485;23;20179;-92
2021/10/18 22:33:06;;;;;;;10.27;8.63;;;17.00;99.90;;;;;;6129528;23;20269;-94
2021/10/18 22:35:32;;;;;;;13.73;9.97;;;17.00;99.90;;;;;;6132082;23;20194;-94
2021/10/18 22:37:58;;;;;;;12.33;8.77;;;16.90;99.90;;;;;;6131708;23;20167;-93
2021/10/18 22:40:24;;;;;;;11.63;8.53;;;16.80;99.90;;;;;;6131573;23;20148;-94
2021/10/18 22:42:56;;;;;;;11.80;8.87;;;16.80;99.90;;;;;;6131408;23;20164;-95
2021/10/18 22:45:21;;;;;;;13.60;10.13;;;16.80;99.90;;;;;;6131643;23;20156;-94
2021/10/18 22:47:47;;;;;;;12.07;9.40;;;16.90;99.90;;;;;;6132196;23;20663;-93
2021/10/18 22:50:13;;;;;;;29.20;21.57;;;16.90;99.90;;;;;;6131824;23;20262;-93
2021/10/18 22:53:12;;;;;;;;;;;;;;;;;;;;;
2021/10/18 23:02:33;;;;;;;12.30;10.30;;;16.90;99.90;;;;;;6157614;23;20227;-92
2021/10/18 23:06:06;;;;;;;;;;;;;;;;;;;;;
2021/10/18 23:09:19;;;;;;;;;;;;;;;;;;;;;
2021/10/18 23:12:53;;;;;;;15.00;10.93;;;16.80;99.90;;;;;;6157388;23;20248;-92
2021/10/18 23:23:24;;;;;;;;;;;;;;;;;;;;;
2021/10/18 23:26:28;;;;;;;;;;;;;;;;;;;;;
2021/10/18 23:29:59;;;;;;;;;;;;;;;;;;;;;
2021/10/18 23:32:42;;;;;;;17.37;10.47;;;16.60;99.90;;;;;;6015830;23;20238;-90
2021/10/18 23:35:10;;;;;;;15.57;11.20;;;16.50;99.90;;;;;;6015146;23;20539;-92
2021/10/18 23:37:46;;;;;;;31.70;21.33;;;16.40;99.90;;;;;;6024170;23;20163;-91
2021/10/18 23:40:13;;;;;;;25.70;18.33;;;16.50;99.90;;;;;;6126339;23;20180;-91
2021/10/18 23:42:42;;;;;;;14.60;11.70;;;16.50;99.90;;;;;;6126618;23;20203;-91
2021/10/18 23:45:24;;;;;;;13.80;10.53;;;16.50;99.90;;;;;;6123296;23;20193;-91
2021/10/18 23:47:55;;;;;;;16.70;11.23;;;16.50;99.90;;;;;;6126228;23;20209;-92
2021/10/18 23:50:35;;;;;;;14.03;11.43;;;16.60;99.90;;;;;;6127012;23;20201;-92
2021/10/18 23:53:04;;;;;;;12.53;9.40;;;16.50;99.90;;;;;;6126354;23;20161;-92
2021/10/18 23:55:40;;;;;;;16.33;12.43;;;16.50;99.90;;;;;;6126683;23;20638;-92
2021/10/18 23:58:21;;;;;;;13.87;9.90;;;16.60;99.90;;;;;;6127389;23;20164;-92
